Aviation Digital Data Service (ADDS)

Output produced by METARs form (0743 UTC 28 February 2017)
found at http://aviationweather.gov/adds/metars/
 
KDEN 280522Z 2806/0112 07013KT P6SM SCT140 BKN220 
     FM281000 13007KT P6SM BKN120 
     FM281400 17008KT P6SM SCT080 BKN120 
     FM281800 14010KT P6SM VCSH SCT060 OVC080 
     FM282200 06012KT 3SM -SHSN OVC020 
     FM010000 34014KT P6SM VCSH BKN030 
     FM010200 29010KT P6SM BKN080 
     FM010400 29010KT P6SM SCT140 
     FM010700 26012KT P6SM SCT220